createdAt,value
2016-06-15T00:00:22.190Z,15.17
2016-06-15T00:01:22.178Z,15.22
2016-06-15T00:02:22.025Z,15.24
2016-06-15T00:03:22.216Z,15.24
2016-06-15T00:04:22.297Z,15.25
2016-06-15T00:05:22.659Z,15.11
2016-06-15T00:06:22.178Z,15.21
2016-06-15T00:07:22.196Z,15.18
2016-06-15T00:08:22.215Z,15.14
2016-06-15T00:09:22.031Z,15.14
2016-06-15T00:10:22.191Z,15.15
2016-06-15T00:11:22.193Z,15.11
2016-06-15T00:12:22.197Z,15.07
2016-06-15T00:13:22.214Z,15.11
2016-06-15T00:14:22.203Z,15.19
2016-06-15T00:15:22.237Z,15.06
2016-06-15T00:16:22.209Z,15.04
2016-06-15T00:17:22.227Z,15.17
2016-06-15T00:18:22.215Z,15.1
2016-06-15T00:19:23.108Z,15.11
2016-06-15T00:20:22.361Z,15.15
2016-06-15T00:21:22.209Z,15.14
2016-06-15T00:22:22.196Z,15.21
2016-06-15T00:23:22.246Z,15.21
2016-06-15T00:24:22.233Z,15.17
2016-06-15T00:25:22.237Z,15.18
2016-06-15T00:26:22.223Z,15.04
2016-06-15T00:27:22.212Z,15.14
2016-06-15T00:28:22.245Z,15.02
2016-06-15T00:29:22.218Z,15.03
2016-06-15T00:30:22.220Z,15.03
2016-06-15T00:31:22.239Z,15.03
2016-06-15T00:32:22.070Z,15.02
2016-06-15T00:33:22.245Z,15.02
2016-06-15T00:34:22.842Z,15.11
2016-06-15T00:35:22.236Z,14.94
2016-06-15T00:36:22.224Z,14.99
2016-06-15T00:37:22.226Z,14.97
2016-06-15T00:38:22.245Z,14.84
2016-06-15T00:39:22.249Z,14.81
2016-06-15T00:40:22.252Z,14.88
2016-06-15T00:41:22.082Z,14.72
2016-06-15T00:42:22.258Z,14.72
2016-06-15T00:43:22.245Z,14.62
2016-06-15T00:44:22.264Z,14.68
2016-06-15T00:45:22.251Z,14.6
2016-06-15T00:46:22.270Z,14.59
2016-06-15T00:47:22.257Z,14.6
2016-06-15T00:48:22.260Z,14.65
2016-06-15T00:49:22.247Z,14.65
2016-06-15T00:50:22.907Z,14.62
2016-06-15T00:51:22.254Z,14.69
2016-06-15T00:52:22.241Z,14.62
2016-06-15T00:53:22.245Z,14.77
2016-06-15T00:54:22.248Z,14.73
2016-06-15T00:55:22.266Z,14.77
2016-06-15T00:56:22.269Z,14.82
2016-06-15T00:57:22.272Z,14.79
2016-06-15T00:58:22.322Z,14.77
2016-06-15T00:59:22.345Z,14.7
2016-06-15T01:00:22.370Z,14.69
2016-06-15T01:01:22.409Z,14.72
2016-06-15T01:02:22.448Z,14.65
2016-06-15T01:03:22.469Z,14.65
2016-06-15T01:04:22.469Z,14.65
2016-06-15T01:05:22.532Z,14.68
2016-06-15T01:06:22.517Z,14.66
2016-06-15T01:07:22.361Z,14.59
2016-06-15T01:08:22.557Z,14.68
2016-06-15T01:09:22.535Z,14.58
2016-06-15T01:10:22.558Z,14.63
2016-06-15T01:11:22.551Z,14.59
2016-06-15T01:12:22.558Z,14.66
2016-06-15T01:13:22.564Z,14.69
2016-06-15T01:14:22.552Z,14.65
2016-06-15T01:15:22.401Z,14.66
2016-06-15T01:16:22.578Z,14.62
2016-06-15T01:17:22.582Z,14.66
2016-06-15T01:18:22.603Z,14.7
2016-06-15T01:19:22.574Z,14.72
2016-06-15T01:20:22.344Z,14.66
2016-06-15T01:21:22.598Z,14.79
2016-06-15T01:22:22.586Z,14.7
2016-06-15T01:23:22.605Z,14.66
2016-06-15T01:24:22.608Z,14.68
2016-06-15T01:25:22.580Z,14.69
2016-06-15T01:26:22.583Z,14.7
2016-06-15T01:27:22.587Z,14.7
2016-06-15T01:28:22.620Z,14.65
2016-06-15T01:29:22.593Z,14.68
2016-06-15T01:30:22.595Z,14.55
2016-06-15T01:31:22.599Z,14.54
2016-06-15T01:32:22.585Z,14.62
2016-06-15T01:33:22.589Z,14.58
2016-06-15T01:34:22.607Z,14.58
2016-06-15T01:35:22.611Z,14.55
2016-06-15T01:36:22.628Z,14.63
2016-06-15T01:37:22.617Z,14.54
2016-06-15T01:38:22.620Z,14.6
2016-06-15T01:39:22.592Z,14.54
2016-06-15T01:40:22.626Z,14.59
2016-06-15T01:41:22.598Z,14.58
2016-06-15T01:42:22.601Z,14.54
2016-06-15T01:43:22.635Z,14.6
2016-06-15T01:44:22.623Z,14.58
2016-06-15T01:45:22.594Z,14.62
2016-06-15T01:46:22.628Z,14.54
2016-06-15T01:47:22.600Z,14.55
2016-06-15T01:48:22.635Z,14.63
2016-06-15T01:49:22.638Z,14.58
2016-06-15T01:50:22.454Z,14.6
2016-06-15T01:51:22.644Z,14.63
2016-06-15T01:52:22.632Z,14.66
2016-06-15T01:53:22.650Z,14.66
2016-06-15T01:54:22.622Z,14.62
2016-06-15T01:55:22.641Z,14.73
2016-06-15T01:56:22.612Z,14.69
2016-06-15T01:57:22.647Z,14.78
2016-06-15T01:58:22.650Z,14.78
2016-06-15T01:59:22.622Z,14.77
2016-06-15T02:00:22.641Z,14.81
2016-06-15T02:01:22.644Z,14.85
2016-06-15T02:02:22.491Z,14.78
2016-06-15T02:03:22.634Z,14.88
2016-06-15T02:04:22.669Z,14.86
2016-06-15T02:05:22.656Z,14.86
2016-06-15T02:06:22.659Z,14.79
2016-06-15T02:07:22.662Z,14.72
2016-06-15T02:08:22.634Z,14.81
2016-06-15T02:09:22.652Z,14.81
2016-06-15T02:10:22.640Z,14.78
2016-06-15T02:11:22.659Z,14.72
2016-06-15T02:12:22.662Z,14.77
2016-06-15T02:13:22.650Z,14.77
2016-06-15T02:14:22.653Z,14.7
2016-06-15T02:15:22.656Z,14.78
2016-06-15T02:16:22.659Z,14.79
2016-06-15T02:17:22.646Z,14.81
2016-06-15T02:18:22.680Z,14.79
2016-06-15T02:19:22.652Z,14.73
2016-06-15T02:20:22.389Z,14.73
2016-06-15T02:21:22.658Z,14.66
2016-06-15T02:22:22.662Z,14.65
2016-06-15T02:23:22.680Z,14.66
2016-06-15T02:24:22.668Z,14.54
2016-06-15T02:25:22.670Z,14.59
2016-06-15T02:26:22.657Z,14.55
2016-06-15T02:27:22.645Z,14.59
2016-06-15T02:28:22.696Z,14.41
2016-06-15T02:29:22.651Z,14.5
2016-06-15T02:30:22.670Z,14.4
2016-06-15T02:31:22.501Z,14.36
2016-06-15T02:32:22.676Z,14.33
2016-06-15T02:33:22.695Z,14.37
2016-06-15T02:34:22.682Z,14.29
2016-06-15T02:35:22.639Z,14.36
2016-06-15T02:36:22.688Z,14.35
2016-06-15T02:37:22.691Z,14.25
2016-06-15T02:38:22.694Z,14.22
2016-06-15T02:39:22.713Z,14.18
2016-06-15T02:40:22.685Z,14.2
2016-06-15T02:41:22.704Z,14.25
2016-06-15T02:42:22.691Z,14.17
2016-06-15T02:43:22.710Z,14.18
2016-06-15T02:44:22.698Z,14.12
2016-06-15T02:45:22.701Z,14.17
2016-06-15T02:46:22.704Z,14.2
2016-06-15T02:47:22.519Z,14.14
2016-06-15T02:48:22.725Z,14.14
2016-06-15T02:49:22.525Z,14.1
2016-06-15T02:50:22.717Z,14.1
2016-06-15T02:51:22.719Z,14.08
2016-06-15T02:52:22.692Z,14.07
2016-06-15T02:53:22.725Z,14.05
2016-06-15T02:54:22.713Z,14.04
2016-06-15T02:55:22.716Z,14.14
2016-06-15T02:56:22.704Z,14.07
2016-06-15T02:57:22.706Z,14.1
2016-06-15T02:58:22.725Z,14.05
2016-06-15T02:59:22.712Z,14.03
2016-06-15T03:00:22.716Z,14.1
2016-06-15T03:01:22.703Z,14.11
2016-06-15T03:02:22.707Z,14.03
2016-06-15T03:03:22.725Z,14.12
2016-06-15T03:04:22.712Z,14.07
2016-06-15T03:05:23.199Z,14.03
2016-06-15T03:06:23.656Z,14.04
2016-06-15T03:07:22.738Z,14.04
2016-06-15T03:08:22.725Z,14.11
2016-06-15T03:09:22.744Z,14
2016-06-15T03:10:22.730Z,14.05
2016-06-15T03:11:22.718Z,14
2016-06-15T03:12:22.737Z,14
2016-06-15T03:13:22.740Z,13.92
2016-06-15T03:14:22.727Z,13.97
2016-06-15T03:15:22.746Z,13.9
2016-06-15T03:16:22.765Z,13.9
2016-06-15T03:17:22.737Z,13.97
2016-06-15T03:18:22.755Z,13.92
2016-06-15T03:19:22.742Z,13.9
2016-06-15T03:20:22.886Z,13.97
2016-06-15T03:21:23.248Z,13.89
2016-06-15T03:22:22.736Z,13.97
2016-06-15T03:23:22.724Z,14
2016-06-15T03:24:22.742Z,13.93
2016-06-15T03:25:22.761Z,13.92
2016-06-15T03:26:22.780Z,13.95
2016-06-15T03:27:22.580Z,13.96
2016-06-15T03:28:22.755Z,14.03
2016-06-15T03:29:22.742Z,13.95
2016-06-15T03:30:22.776Z,13.96
2016-06-15T03:31:22.779Z,13.9
2016-06-15T03:32:22.751Z,13.9
2016-06-15T03:33:22.754Z,13.89
2016-06-15T03:34:22.758Z,13.89
2016-06-15T03:35:22.760Z,13.93
2016-06-15T03:36:22.577Z,13.79
2016-06-15T03:37:22.767Z,13.99
2016-06-15T03:38:22.786Z,13.83
2016-06-15T03:39:22.757Z,13.86
2016-06-15T03:40:22.760Z,13.85
2016-06-15T03:41:22.748Z,13.89
2016-06-15T03:42:22.766Z,13.87
2016-06-15T03:43:22.769Z,13.83
2016-06-15T03:44:22.757Z,13.81
2016-06-15T03:45:22.745Z,13.85
2016-06-15T03:46:22.747Z,13.83
2016-06-15T03:47:22.751Z,13.81
2016-06-15T03:48:22.769Z,13.86
2016-06-15T03:49:22.757Z,13.87
2016-06-15T03:50:22.775Z,13.87
2016-06-15T03:51:22.904Z,13.85
2016-06-15T03:52:22.765Z,13.86
2016-06-15T03:53:22.800Z,13.93
2016-06-15T03:54:22.771Z,13.95
2016-06-15T03:55:22.760Z,13.99
2016-06-15T03:56:22.778Z,13.97
2016-06-15T03:57:22.750Z,13.93
2016-06-15T03:58:22.816Z,14.05
2016-06-15T03:59:22.787Z,14.08
2016-06-15T04:00:22.775Z,14.14
2016-06-15T04:01:22.794Z,14.18
2016-06-15T04:02:22.781Z,14.18
2016-06-15T04:03:22.800Z,14.29
2016-06-15T04:04:22.771Z,14.37
2016-06-15T04:05:23.275Z,14.5
2016-06-15T04:06:24.028Z,14.59
2016-06-15T04:07:22.781Z,14.69
2016-06-15T04:08:22.800Z,14.73
2016-06-15T04:09:22.771Z,14.92
2016-06-15T04:10:22.774Z,15.04
2016-06-15T04:11:22.777Z,15.24
2016-06-15T04:12:22.780Z,15.64
2016-06-15T04:13:22.815Z,15.61
2016-06-15T04:14:22.786Z,15.76
2016-06-15T04:15:22.806Z,15.68
2016-06-15T04:16:22.792Z,15.62
2016-06-15T04:17:22.671Z,15.54
2016-06-15T04:18:22.784Z,15.42
2016-06-15T04:19:22.787Z,15.44
2016-06-15T04:20:22.790Z,15.42
2016-06-15T04:21:23.136Z,15.47
2016-06-15T04:22:22.811Z,15.39
2016-06-15T04:23:22.814Z,15.46
2016-06-15T04:24:22.803Z,15.42
2016-06-15T04:25:22.820Z,15.47
2016-06-15T04:26:22.793Z,15.55
2016-06-15T04:27:22.795Z,15.64
2016-06-15T04:28:22.846Z,15.61
2016-06-15T04:29:22.833Z,15.7
2016-06-15T04:30:22.805Z,15.64
2016-06-15T04:31:22.792Z,15.73
2016-06-15T04:32:22.811Z,15.73
2016-06-15T04:33:22.830Z,15.82
2016-06-15T04:34:22.817Z,15.83
2016-06-15T04:35:22.820Z,16.01
2016-06-15T04:36:23.276Z,16.21
2016-06-15T04:37:22.842Z,16.28
2016-06-15T04:38:22.845Z,16.26
2016-06-15T04:39:22.832Z,16.15
2016-06-15T04:40:22.852Z,16.32
2016-06-15T04:41:22.822Z,16.39
2016-06-15T04:42:22.810Z,16.74
2016-06-15T04:43:22.844Z,16.86
2016-06-15T04:44:22.660Z,17.04
2016-06-15T04:45:22.834Z,17.12
2016-06-15T04:46:22.838Z,17.2
2016-06-15T04:47:22.856Z,17.14
2016-06-15T04:48:22.876Z,16.94
2016-06-15T04:49:22.863Z,16.84
2016-06-15T04:50:22.866Z,16.76
2016-06-15T04:51:23.041Z,16.56
2016-06-15T04:52:22.888Z,16.47
2016-06-15T04:53:22.859Z,16.38
2016-06-15T04:54:22.878Z,16.31
2016-06-15T04:55:22.897Z,16.08
2016-06-15T04:56:22.900Z,16.01
2016-06-15T04:57:22.888Z,15.86
2016-06-15T04:58:22.890Z,15.84
2016-06-15T04:59:22.910Z,15.76
2016-06-15T05:00:22.896Z,15.65
2016-06-15T05:01:22.916Z,15.64
2016-06-15T05:02:22.919Z,15.54
2016-06-15T05:03:22.906Z,15.51
2016-06-15T05:04:22.909Z,15.43
2016-06-15T05:05:22.943Z,15.44
2016-06-15T05:06:22.931Z,15.46
2016-06-15T05:07:22.902Z,15.42
2016-06-15T05:08:22.922Z,15.35
2016-06-15T05:09:22.893Z,15.27
2016-06-15T05:10:22.897Z,15.29
2016-06-15T05:11:22.930Z,15.28
2016-06-15T05:12:22.918Z,15.27
2016-06-15T05:13:22.937Z,15.19
2016-06-15T05:14:22.831Z,15.19
2016-06-15T05:15:22.927Z,15.21
2016-06-15T05:16:22.915Z,15.14
2016-06-15T05:17:22.918Z,15.1
2016-06-15T05:18:22.936Z,15.04
2016-06-15T05:19:22.909Z,15.06
2016-06-15T05:20:22.942Z,14.99
2016-06-15T05:21:23.306Z,15.04
2016-06-15T05:22:22.933Z,14.94
2016-06-15T05:23:22.968Z,15
2016-06-15T05:24:22.954Z,15.02
2016-06-15T05:25:22.927Z,15
2016-06-15T05:26:22.945Z,14.88
2016-06-15T05:27:22.949Z,14.97
2016-06-15T05:28:22.952Z,15.02
2016-06-15T05:29:22.970Z,14.99
2016-06-15T05:30:22.958Z,14.97
2016-06-15T05:31:22.992Z,14.99
2016-06-15T05:32:22.948Z,15.02
2016-06-15T05:33:22.967Z,14.92
2016-06-15T05:34:22.954Z,14.91
2016-06-15T05:35:22.989Z,14.89
2016-06-15T05:36:22.960Z,14.88
2016-06-15T05:37:22.963Z,14.84
2016-06-15T05:38:22.810Z,14.89
2016-06-15T05:39:22.954Z,14.96
2016-06-15T05:40:22.957Z,14.92
2016-06-15T05:41:22.961Z,15.09
2016-06-15T05:42:22.964Z,14.99
2016-06-15T05:43:22.966Z,15.09
2016-06-15T05:44:22.938Z,15.04
2016-06-15T05:45:22.973Z,15.03
2016-06-15T05:46:22.977Z,15.03
2016-06-15T05:47:22.979Z,15.07
2016-06-15T05:48:22.983Z,15.15
2016-06-15T05:49:23.016Z,15.14
2016-06-15T05:50:23.003Z,15.17
2016-06-15T05:51:22.694Z,15.24
2016-06-15T05:52:22.995Z,15.27
2016-06-15T05:53:23.012Z,15.28
2016-06-15T05:54:22.985Z,15.17
2016-06-15T05:55:22.971Z,15.11
2016-06-15T05:56:22.991Z,15.15
2016-06-15T05:57:22.994Z,15.09
2016-06-15T05:58:23.013Z,15.18
2016-06-15T05:59:23.031Z,15.24
2016-06-15T06:00:22.987Z,15.14
2016-06-15T06:01:22.990Z,15.24
2016-06-15T06:02:23.010Z,15.27
2016-06-15T06:03:23.012Z,15.21
2016-06-15T06:04:22.985Z,15.31
2016-06-15T06:05:23.002Z,15.36
2016-06-15T06:06:23.818Z,15.25
2016-06-15T06:07:22.994Z,15.33
2016-06-15T06:08:23.012Z,15.4
2016-06-15T06:09:22.999Z,15.42
2016-06-15T06:10:23.034Z,15.49
2016-06-15T06:11:23.021Z,15.47
2016-06-15T06:12:23.009Z,15.43
2016-06-15T06:13:23.028Z,15.51
2016-06-15T06:14:23.030Z,15.55
2016-06-15T06:15:23.050Z,15.52
2016-06-15T06:16:23.052Z,15.58
2016-06-15T06:17:23.056Z,15.54
2016-06-15T06:18:23.042Z,15.57
2016-06-15T06:19:23.031Z,15.68
2016-06-15T06:20:23.049Z,15.72
2016-06-15T06:21:23.084Z,15.77
2016-06-15T06:22:23.024Z,15.84
2016-06-15T06:23:23.058Z,15.83
2016-06-15T06:24:23.030Z,15.92
2016-06-15T06:25:23.049Z,16.02
2016-06-15T06:26:23.052Z,16.04
2016-06-15T06:27:23.055Z,16.13
2016-06-15T06:28:23.058Z,16.17
2016-06-15T06:29:23.062Z,16.24
2016-06-15T06:30:23.064Z,16.36
2016-06-15T06:31:23.052Z,16.33
2016-06-15T06:32:23.054Z,16.35
2016-06-15T06:33:23.074Z,16.36
2016-06-15T06:34:23.061Z,16.39
2016-06-15T06:35:23.064Z,16.39
2016-06-15T06:36:23.442Z,16.47
2016-06-15T06:37:23.053Z,16.5
2016-06-15T06:38:23.073Z,16.61
2016-06-15T06:39:23.092Z,16.64
2016-06-15T06:40:23.063Z,16.66
2016-06-15T06:41:23.082Z,16.76
2016-06-15T06:42:22.960Z,16.74
2016-06-15T06:43:23.432Z,16.84
2016-06-15T06:44:23.825Z,16.79
2016-06-15T06:45:23.079Z,16.86
2016-06-15T06:46:23.066Z,16.84
2016-06-15T06:47:23.117Z,16.81
2016-06-15T06:48:23.103Z,16.86
2016-06-15T06:49:23.107Z,16.78
2016-06-15T06:50:23.094Z,16.74
2016-06-15T06:51:22.988Z,16.72
2016-06-15T06:52:23.116Z,16.57
2016-06-15T06:53:23.119Z,16.61
2016-06-15T06:54:23.106Z,16.58
2016-06-15T06:55:23.110Z,16.58
2016-06-15T06:56:23.128Z,16.51
2016-06-15T06:57:23.116Z,16.57
2016-06-15T06:58:23.165Z,16.58
2016-06-15T06:59:23.107Z,16.53
2016-06-15T07:00:23.125Z,16.54
2016-06-15T07:01:23.128Z,16.61
2016-06-15T07:02:23.116Z,16.53
2016-06-15T07:03:23.150Z,16.57
2016-06-15T07:04:23.169Z,16.68
2016-06-15T07:05:23.156Z,16.74
2016-06-15T07:06:23.253Z,16.9
2016-06-15T07:07:23.146Z,16.89
2016-06-15T07:08:23.149Z,16.83
2016-06-15T07:09:23.168Z,16.86
2016-06-15T07:10:23.171Z,16.84
2016-06-15T07:11:23.175Z,16.91
2016-06-15T07:12:23.161Z,16.79
2016-06-15T07:13:23.181Z,16.81
2016-06-15T07:14:23.167Z,16.81
2016-06-15T07:15:23.203Z,16.75
2016-06-15T07:16:23.190Z,16.76
2016-06-15T07:17:23.177Z,16.64
2016-06-15T07:18:23.040Z,16.61
2016-06-15T07:19:23.199Z,16.71
2016-06-15T07:20:23.202Z,16.66
2016-06-15T07:21:23.190Z,16.68
2016-06-15T07:22:23.052Z,16.74
2016-06-15T07:23:23.211Z,16.81
2016-06-15T07:24:23.198Z,16.72
2016-06-15T07:25:23.031Z,16.84
2016-06-15T07:26:23.220Z,16.87
2016-06-15T07:27:23.208Z,16.86
2016-06-15T07:28:23.211Z,16.9
2016-06-15T07:29:23.246Z,16.78
2016-06-15T07:30:23.452Z,16.76
2016-06-15T07:31:23.252Z,16.83
2016-06-15T07:32:23.223Z,16.86
2016-06-15T07:33:23.242Z,16.89
2016-06-15T07:34:23.229Z,16.75
2016-06-15T07:35:23.217Z,16.87
2016-06-15T07:36:23.485Z,16.84
2016-06-15T07:37:23.363Z,16.86
2016-06-15T07:38:23.241Z,16.87
2016-06-15T07:39:23.260Z,16.84
2016-06-15T07:40:23.264Z,16.94
2016-06-15T07:41:23.236Z,16.94
2016-06-15T07:42:23.253Z,17.05
2016-06-15T07:43:23.257Z,17.11
2016-06-15T07:44:23.260Z,17.19
2016-06-15T07:45:23.279Z,17.36
2016-06-15T07:46:23.282Z,17.41
2016-06-15T07:47:23.269Z,17.3
2016-06-15T07:48:23.272Z,17.42
2016-06-15T07:49:23.291Z,17.34
2016-06-15T07:50:23.294Z,17.38
2016-06-15T07:51:23.797Z,17.44
2016-06-15T07:52:23.520Z,17.46
2016-06-15T07:53:23.287Z,17.51
2016-06-15T07:54:23.275Z,17.54
2016-06-15T07:55:23.294Z,17.57
2016-06-15T07:56:23.282Z,17.57
2016-06-15T07:57:23.285Z,17.56
2016-06-15T07:58:23.318Z,17.57
2016-06-15T07:59:23.322Z,17.56
2016-06-15T08:00:23.309Z,17.54
2016-06-15T08:01:23.328Z,17.56
2016-06-15T08:02:23.331Z,17.46
2016-06-15T08:03:23.318Z,17.46
2016-06-15T08:04:23.321Z,17.46
2016-06-15T08:05:23.324Z,17.49
2016-06-15T08:06:23.875Z,17.36
2016-06-15T08:07:23.768Z,17.3
2016-06-15T08:08:23.350Z,17.12
2016-06-15T08:09:23.337Z,17.08
2016-06-15T08:10:23.355Z,16.86
2016-06-15T08:11:23.343Z,16.87
2016-06-15T08:12:23.345Z,16.78
2016-06-15T08:13:23.349Z,16.78
2016-06-15T08:14:23.337Z,16.75
2016-06-15T08:15:23.371Z,16.66
2016-06-15T08:16:23.344Z,16.66
2016-06-15T08:17:23.346Z,16.61
2016-06-15T08:18:23.380Z,16.61
2016-06-15T08:19:23.383Z,16.58
2016-06-15T08:20:23.370Z,16.51
2016-06-15T08:21:24.953Z,16.56
2016-06-15T08:22:23.392Z,16.6
2016-06-15T08:23:23.255Z,16.54
2016-06-15T08:24:24.274Z,16.54
2016-06-15T08:25:23.371Z,16.58
2016-06-15T08:26:23.389Z,16.61
2016-06-15T08:27:23.424Z,16.64
2016-06-15T08:28:23.395Z,16.53
2016-06-15T08:29:23.383Z,16.64
2016-06-15T08:30:23.136Z,16.58
2016-06-15T08:31:23.389Z,16.65
2016-06-15T08:32:23.377Z,16.58
2016-06-15T08:33:23.379Z,16.53
2016-06-15T08:34:23.414Z,16.56
2016-06-15T08:35:23.402Z,16.58
2016-06-15T08:36:23.264Z,16.58
2016-06-15T08:37:23.439Z,16.57
2016-06-15T08:38:23.410Z,16.6
2016-06-15T08:39:23.258Z,16.64
2016-06-15T08:40:23.417Z,16.69
2016-06-15T08:41:23.435Z,16.69
2016-06-15T08:42:23.423Z,16.72
2016-06-15T08:43:23.441Z,16.75
2016-06-15T08:44:23.398Z,16.84
2016-06-15T08:45:23.433Z,16.83
2016-06-15T08:46:23.435Z,16.78
2016-06-15T08:47:23.439Z,16.86
2016-06-15T08:48:23.441Z,16.9
2016-06-15T08:49:23.459Z,17.02
2016-06-15T08:50:23.323Z,17.02
2016-06-15T08:51:24.622Z,17.02
2016-06-15T08:52:23.454Z,17.01
2016-06-15T08:53:23.503Z,17.06
2016-06-15T08:54:23.460Z,17.08
2016-06-15T08:55:23.463Z,17.04
2016-06-15T08:56:23.466Z,16.96
2016-06-15T08:57:23.484Z,16.86
2016-06-15T08:58:23.441Z,16.81
2016-06-15T08:59:23.475Z,16.84
2016-06-15T09:00:28.009Z,16.72
2016-06-15T09:01:30.951Z,16.66
2016-06-15T09:02:23.466Z,16.66
2016-06-15T09:03:23.469Z,16.72
2016-06-15T09:04:23.472Z,16.71
2016-06-15T09:05:23.491Z,16.74
2016-06-15T09:06:23.478Z,16.72
2016-06-15T09:07:23.622Z,16.69
2016-06-15T09:08:23.531Z,16.76
2016-06-15T09:09:23.504Z,16.69
2016-06-15T09:10:23.521Z,16.64
2016-06-15T09:11:23.524Z,16.61
2016-06-15T09:12:23.357Z,16.53
2016-06-15T09:13:34.697Z,16.46
2016-06-15T09:14:23.497Z,16.43
2016-06-15T09:15:23.498Z,16.35
2016-06-15T09:16:23.518Z,16.35
2016-06-15T09:17:23.537Z,16.46
2016-06-15T09:18:23.525Z,16.39
2016-06-15T09:19:23.543Z,16.49
2016-06-15T09:20:23.546Z,16.58
2016-06-15T09:21:23.550Z,16.61
2016-06-15T09:22:24.395Z,16.72
2016-06-15T09:23:23.524Z,16.64
2016-06-15T09:24:23.542Z,16.72
2016-06-15T09:25:23.530Z,16.68
2016-06-15T09:26:23.548Z,16.64
2016-06-15T09:27:23.536Z,16.61
2016-06-15T09:28:23.555Z,16.68
2016-06-15T09:29:23.568Z,16.56
2016-06-15T09:30:23.571Z,16.61
2016-06-15T09:31:23.402Z,16.71
2016-06-15T09:32:23.547Z,16.76
2016-06-15T09:33:23.550Z,16.89
2016-06-15T09:34:23.552Z,16.84
2016-06-15T09:35:23.571Z,16.87
2016-06-15T09:36:23.574Z,17.04
2016-06-15T09:37:23.764Z,17.06
2016-06-15T09:38:23.579Z,17.11
2016-06-15T09:39:23.582Z,17.09
2016-06-15T09:40:23.571Z,17.27
2016-06-15T09:41:23.574Z,17.22
2016-06-15T09:42:23.592Z,17.36
2016-06-15T09:43:23.564Z,17.39
2016-06-15T09:44:23.598Z,17.38
2016-06-15T09:45:23.618Z,17.27
2016-06-15T09:46:23.604Z,17.16
2016-06-15T09:47:23.592Z,17.27
2016-06-15T09:48:23.626Z,17.3
2016-06-15T09:49:23.489Z,17.22
2016-06-15T09:50:23.522Z,17.12
2016-06-15T09:51:23.480Z,17.12
2016-06-15T09:52:24.061Z,17.23
2016-06-15T09:53:23.923Z,17.27
2016-06-15T09:54:23.659Z,17.31
2016-06-15T09:55:23.648Z,17.31
2016-06-15T09:56:23.635Z,17.2
2016-06-15T09:57:23.638Z,17.15
2016-06-15T09:58:23.641Z,17.14
2016-06-15T09:59:23.645Z,17.19
2016-06-15T10:00:23.663Z,17.14
2016-06-15T10:01:23.635Z,17.26
2016-06-15T10:02:23.653Z,17.36
2016-06-15T10:03:23.656Z,17.3
2016-06-15T10:04:23.569Z,17.23
2016-06-15T10:05:23.721Z,17.26
2016-06-15T10:06:23.764Z,17.14
2016-06-15T10:07:24.105Z,17.06
2016-06-15T10:08:23.866Z,17.06
2016-06-15T10:09:23.897Z,16.94
2016-06-15T10:10:23.899Z,16.96
2016-06-15T10:11:23.915Z,16.97
2016-06-15T10:12:23.918Z,16.99
2016-06-15T10:13:23.936Z,16.96
2016-06-15T10:14:23.964Z,17.06
2016-06-15T10:15:23.988Z,17.08
2016-06-15T10:16:31.918Z,17.09
2016-06-15T10:17:23.974Z,17.09
2016-06-15T10:18:25.888Z,17.12
2016-06-15T10:19:23.989Z,17.12
2016-06-15T10:20:23.994Z,17.16
2016-06-15T10:21:24.030Z,17.15
2016-06-15T10:22:23.894Z,17.2
2016-06-15T10:23:24.024Z,17.16
2016-06-15T10:24:24.028Z,17.19
2016-06-15T10:25:24.032Z,17.3
2016-06-15T10:26:24.052Z,17.33
2016-06-15T10:27:24.023Z,17.24
2016-06-15T10:28:24.042Z,17.14
2016-06-15T10:29:24.062Z,17.05
2016-06-15T10:30:24.049Z,17.14
2016-06-15T10:31:24.068Z,17.29
2016-06-15T10:32:24.072Z,17.36
2016-06-15T10:33:24.075Z,17.56
2016-06-15T10:34:24.063Z,17.74
2016-06-15T10:35:24.457Z,17.94
2016-06-15T10:36:32.616Z,18.03
2016-06-15T10:37:50.683Z,18.11
2016-06-15T10:38:39.435Z,18.31
2016-06-15T10:39:40.281Z,18.49
2016-06-15T10:40:44.629Z,18.43
2016-06-15T10:41:53.913Z,18.56
2016-06-15T10:42:58.119Z,18.58
2016-06-15T10:43:25.091Z,18.7
2016-06-15T10:44:24.954Z,18.8
2016-06-15T10:45:33.847Z,18.96
2016-06-15T10:47:07.806Z,18.98
2016-06-15T10:48:05.244Z,19.12
2016-06-15T10:49:23.845Z,19.24
2016-06-15T10:50:33.379Z,19.3
2016-06-15T10:51:25.194Z,19.52
2016-06-15T10:52:30.416Z,19.51
2016-06-15T10:54:11.766Z,19.44
